createdAt,value
2022-12-25T00:00:40.291Z,0
2022-12-25T00:02:47.409Z,0
2022-12-25T00:04:55.662Z,0
2022-12-25T00:07:03.053Z,0
2022-12-25T00:08:05.886Z,0
2022-12-25T00:10:12.792Z,0
2022-12-25T00:12:20.478Z,0
2022-12-25T00:14:27.131Z,0
2022-12-25T00:15:30.998Z,0
2022-12-25T00:17:38.961Z,0
2022-12-25T00:19:45.632Z,0
2022-12-25T00:21:51.727Z,0
2022-12-25T00:22:54.721Z,0
2022-12-25T00:23:57.645Z,0
2022-12-25T00:25:00.988Z,0
2022-12-25T00:27:07.967Z,0
2022-12-25T00:28:11.747Z,0
2022-12-25T00:29:15.115Z,0
2022-12-25T00:30:18.584Z,0
2022-12-25T00:32:24.169Z,0
2022-12-25T00:34:45.117Z,0
2022-12-25T00:35:48.470Z,0
2022-12-25T00:37:54.270Z,0
2022-12-25T00:40:00.129Z,0
2022-12-25T00:42:06.728Z,0
2022-12-25T00:43:09.828Z,0
2022-12-25T00:45:17.581Z,0
2022-12-25T00:47:24.556Z,0
2022-12-25T00:48:27.315Z,0
2022-12-25T00:49:30.331Z,0
2022-12-25T00:50:34.057Z,0
2022-12-25T00:52:40.409Z,0
2022-12-25T00:54:46.520Z,0
2022-12-25T00:55:49.874Z,0
2022-12-25T00:57:56.728Z,0
2022-12-25T01:00:03.005Z,0
2022-12-25T01:02:09.859Z,0
2022-12-25T01:03:13.545Z,0
2022-12-25T01:05:20.151Z,0
2022-12-25T01:07:25.912Z,0
2022-12-25T01:08:29.673Z,0
2022-12-25T01:09:33.119Z,0
2022-12-25T01:10:36.146Z,0
2022-12-25T01:12:43.173Z,0
2022-12-25T01:14:49.837Z,0
2022-12-25T01:15:53.894Z,0
2022-12-25T01:18:14.195Z,0
2022-12-25T01:20:20.170Z,0
2022-12-25T01:22:26.979Z,0
2022-12-25T01:23:29.697Z,0
2022-12-25T01:24:32.843Z,0
2022-12-25T01:25:35.975Z,0
2022-12-25T01:27:42.029Z,0
2022-12-25T01:28:44.968Z,0
2022-12-25T01:29:49.016Z,0
2022-12-25T01:30:52.154Z,0
2022-12-25T01:32:59.578Z,0
2022-12-25T01:34:02.765Z,0
2022-12-25T01:35:05.974Z,0
2022-12-25T01:36:08.947Z,0
2022-12-25T01:38:14.415Z,0
2022-12-25T01:39:17.500Z,0
2022-12-25T01:40:21.219Z,0
2022-12-25T01:41:23.973Z,0
2022-12-25T01:43:30.073Z,0
2022-12-25T01:44:33.247Z,0
2022-12-25T01:45:37.483Z,0
2022-12-25T01:46:40.598Z,0
2022-12-25T01:48:47.026Z,0
2022-12-25T01:49:50.102Z,0
2022-12-25T01:50:53.484Z,0
2022-12-25T01:51:56.558Z,0
2022-12-25T01:54:02.429Z,0
2022-12-25T01:56:07.879Z,0
2022-12-25T01:57:11.086Z,0
2022-12-25T01:59:17.516Z,0
2022-12-25T02:01:25.455Z,0
2022-12-25T02:02:30.430Z,0
2022-12-25T02:04:37.535Z,0
2022-12-25T02:06:43.375Z,0
2022-12-25T02:08:49.563Z,0
2022-12-25T02:09:52.833Z,0
2022-12-25T02:11:59.057Z,0
2022-12-25T02:14:06.535Z,0
2022-12-25T02:15:09.574Z,0
2022-12-25T02:16:13.504Z,0
2022-12-25T02:17:17.330Z,0
2022-12-25T02:19:24.337Z,0
2022-12-25T02:20:27.701Z,0
2022-12-25T02:22:34.495Z,0
2022-12-25T02:23:37.228Z,0
2022-12-25T02:25:43.177Z,0
2022-12-25T02:26:46.459Z,0
2022-12-25T02:28:52.025Z,0
2022-12-25T02:29:55.219Z,0
2022-12-25T02:30:58.895Z,0
2022-12-25T02:32:03.080Z,0
2022-12-25T02:34:11.257Z,0
2022-12-25T02:35:14.954Z,0
2022-12-25T02:37:20.855Z,0
2022-12-25T02:39:26.823Z,0
2022-12-25T02:40:29.809Z,0
2022-12-25T02:42:34.483Z,0
2022-12-25T02:44:39.929Z,0
2022-12-25T02:45:42.553Z,0
2022-12-25T02:47:48.542Z,0
2022-12-25T02:49:54.658Z,0
2022-12-25T02:50:57.747Z,0
2022-12-25T02:53:03.932Z,0
2022-12-25T02:55:10.488Z,0
2022-12-25T02:57:16.323Z,0
2022-12-25T02:58:20.050Z,0
2022-12-25T03:00:25.885Z,0
2022-12-25T03:02:33.402Z,0
2022-12-25T03:03:37.324Z,0
2022-12-25T03:04:40.870Z,0
2022-12-25T03:05:44.341Z,0
2022-12-25T03:07:50.559Z,0
2022-12-25T03:08:53.936Z,0
2022-12-25T03:11:00.787Z,0
2022-12-25T03:13:07.585Z,0
2022-12-25T03:15:14.033Z,0
2022-12-25T03:16:17.140Z,0
2022-12-25T03:18:24.122Z,0
2022-12-25T03:20:30.626Z,0
2022-12-25T03:22:37.487Z,0
2022-12-25T03:23:40.645Z,0
2022-12-25T03:25:47.105Z,0
2022-12-25T03:27:52.913Z,0
2022-12-25T03:29:59.294Z,0
2022-12-25T03:31:02.882Z,0
2022-12-25T03:33:47.231Z,0
2022-12-25T03:35:53.766Z,0
2022-12-25T03:38:00.378Z,0
2022-12-25T03:39:03.072Z,0
2022-12-25T03:41:08.950Z,0
2022-12-25T03:43:14.732Z,0
2022-12-25T03:44:17.726Z,0
2022-12-25T03:46:24.532Z,0
2022-12-25T03:48:31.198Z,0
2022-12-25T03:49:34.819Z,0
2022-12-25T03:51:41.451Z,0
2022-12-25T03:53:48.048Z,0
2022-12-25T03:54:51.053Z,0
2022-12-25T03:56:57.742Z,0
2022-12-25T03:59:03.910Z,0
2022-12-25T04:01:10.143Z,0
2022-12-25T04:02:13.948Z,0
2022-12-25T04:04:20.684Z,0
2022-12-25T04:06:26.428Z,0
2022-12-25T04:08:33.168Z,0
2022-12-25T04:09:36.613Z,0
2022-12-25T04:11:42.843Z,0
2022-12-25T04:13:49.255Z,0
2022-12-25T04:15:55.610Z,0
2022-12-25T04:16:58.956Z,0
2022-12-25T04:19:05.780Z,0
2022-12-25T04:21:12.247Z,0
2022-12-25T04:23:19.276Z,0
2022-12-25T04:24:22.994Z,0
2022-12-25T04:26:28.541Z,0
2022-12-25T04:28:34.278Z,0
2022-12-25T04:30:40.946Z,0
2022-12-25T04:31:44.721Z,0
2022-12-25T04:33:50.726Z,0
2022-12-25T04:35:56.863Z,0
2022-12-25T04:38:03.841Z,0
2022-12-25T04:39:07.597Z,0
2022-12-25T04:40:10.693Z,0
2022-12-25T04:41:14.467Z,0
2022-12-25T04:43:20.546Z,0
2022-12-25T04:45:26.519Z,0
2022-12-25T04:46:29.940Z,0
2022-12-25T04:47:32.161Z,0
2022-12-25T04:48:35.218Z,0
2022-12-25T04:50:41.698Z,0
2022-12-25T04:51:44.689Z,0
2022-12-25T04:52:47.788Z,0
2022-12-25T04:53:51.183Z,0
2022-12-25T04:55:57.778Z,0
2022-12-25T04:58:03.663Z,0
2022-12-25T04:59:07.396Z,0
2022-12-25T05:00:10.509Z,0
2022-12-25T05:01:14.094Z,0
2022-12-25T05:03:21.478Z,0
2022-12-25T05:04:25.118Z,0
2022-12-25T05:05:28.093Z,0
2022-12-25T05:06:31.564Z,0
2022-12-25T05:08:37.863Z,0
2022-12-25T05:10:44.758Z,0
2022-12-25T05:11:48.199Z,0
2022-12-25T05:13:54.308Z,0
2022-12-25T05:16:01.796Z,0
2022-12-25T05:18:07.410Z,0
2022-12-25T05:19:10.814Z,0
2022-12-25T05:21:17.795Z,0
2022-12-25T05:23:24.055Z,0
2022-12-25T05:25:30.477Z,0
2022-12-25T05:26:34.260Z,0
2022-12-25T05:28:41.553Z,0
2022-12-25T05:30:47.405Z,0
2022-12-25T05:32:55.492Z,0
2022-12-25T05:33:58.497Z,0
2022-12-25T05:36:04.090Z,0
2022-12-25T05:38:09.943Z,0
2022-12-25T05:40:15.213Z,0
2022-12-25T05:41:18.585Z,0
2022-12-25T05:43:25.466Z,0
2022-12-25T05:45:32.002Z,0
2022-12-25T05:47:39.068Z,0
2022-12-25T05:48:42.244Z,0
2022-12-25T05:50:48.552Z,0
2022-12-25T05:52:55.329Z,0
2022-12-25T05:55:01.843Z,0
2022-12-25T05:56:05.141Z,0
2022-12-25T05:58:11.562Z,0
2022-12-25T06:00:17.815Z,0
2022-12-25T06:02:25.960Z,0
2022-12-25T06:03:30.252Z,0
2022-12-25T06:05:37.471Z,0
2022-12-25T06:07:42.993Z,0
2022-12-25T06:09:49.183Z,0
2022-12-25T06:10:52.485Z,0
2022-12-25T06:12:58.023Z,0
2022-12-25T06:15:04.556Z,0
2022-12-25T06:17:11.755Z,0
2022-12-25T06:18:15.103Z,0
2022-12-25T06:20:21.357Z,0
2022-12-25T06:22:27.551Z,0
2022-12-25T06:23:31.404Z,0
2022-12-25T06:24:33.324Z,0
2022-12-25T06:25:36.319Z,0
2022-12-25T06:27:42.682Z,0
2022-12-25T06:28:46.417Z,0
2022-12-25T06:29:50.789Z,0
2022-12-25T06:30:53.984Z,0
2022-12-25T06:33:01.459Z,0
2022-12-25T06:35:08.634Z,0
2022-12-25T06:36:12.573Z,0
2022-12-25T06:38:18.616Z,0
2022-12-25T06:40:25.436Z,0
2022-12-25T06:41:28.673Z,0
2022-12-25T06:42:32.413Z,0
2022-12-25T06:43:35.564Z,0
2022-12-25T06:45:42.697Z,0
2022-12-25T06:47:48.887Z,0
2022-12-25T06:48:52.238Z,0
2022-12-25T06:50:58.196Z,0
2022-12-25T06:53:06.485Z,0
2022-12-25T06:55:11.736Z,0
2022-12-25T06:56:14.459Z,0
2022-12-25T06:58:20.252Z,0
2022-12-25T07:00:27.317Z,0
2022-12-25T07:01:31.529Z,0
2022-12-25T07:03:39.706Z,0
2022-12-25T07:05:46.231Z,0
2022-12-25T07:06:49.600Z,0
2022-12-25T07:07:52.436Z,0
2022-12-25T07:08:55.498Z,0
2022-12-25T07:11:01.842Z,0
2022-12-25T07:13:07.806Z,1
2022-12-25T07:14:10.528Z,1
2022-12-25T07:16:17.078Z,1
2022-12-25T07:18:24.398Z,1
2022-12-25T07:20:31.194Z,1
2022-12-25T07:21:34.861Z,1
2022-12-25T07:23:41.428Z,2
2022-12-25T07:25:47.329Z,2
2022-12-25T07:27:52.969Z,2
2022-12-25T07:28:56.044Z,2
2022-12-25T07:31:01.305Z,3
2022-12-25T07:33:08.653Z,3
2022-12-25T07:35:15.334Z,4
2022-12-25T07:36:18.123Z,4
2022-12-25T07:37:21.605Z,5
2022-12-25T07:38:24.763Z,5
2022-12-25T07:40:31.576Z,5
2022-12-25T07:41:34.678Z,5
2022-12-25T07:42:37.130Z,6
2022-12-25T07:43:40.215Z,6
2022-12-25T07:45:46.302Z,6
2022-12-25T07:48:16.955Z,6
2022-12-25T07:50:24.061Z,7
2022-12-25T07:51:26.497Z,7
2022-12-25T07:52:29.502Z,7
2022-12-25T07:53:32.315Z,8
2022-12-25T07:55:38.847Z,9
2022-12-25T07:57:44.093Z,11
2022-12-25T07:58:47.435Z,11
2022-12-25T08:00:54.880Z,12
2022-12-25T08:03:04.931Z,13
2022-12-25T08:05:12.353Z,14
2022-12-25T08:06:15.719Z,14
2022-12-25T08:08:21.426Z,16
2022-12-25T08:10:27.869Z,16
2022-12-25T08:11:30.679Z,16
2022-12-25T08:12:33.800Z,17
2022-12-25T08:13:37.227Z,18
2022-12-25T08:15:43.581Z,20
2022-12-25T08:16:47.381Z,20
2022-12-25T08:17:50.620Z,21
2022-12-25T08:18:54.027Z,22
2022-12-25T08:21:00.118Z,26
2022-12-25T08:23:06.679Z,30
2022-12-25T08:24:09.423Z,32
2022-12-25T08:26:15.978Z,32
2022-12-25T08:28:22.732Z,30
2022-12-25T08:30:30.554Z,34
2022-12-25T08:31:36.408Z,37
2022-12-25T08:33:45.577Z,43
2022-12-25T08:35:52.392Z,44
2022-12-25T08:38:00.117Z,46
2022-12-25T08:39:05.862Z,49
2022-12-25T08:40:09.298Z,47
2022-12-25T08:41:12.642Z,44
2022-12-25T08:43:19.055Z,41
2022-12-25T08:44:22.066Z,41
2022-12-25T08:45:35.592Z,42
2022-12-25T08:46:38.882Z,44
2022-12-25T08:48:46.049Z,52
2022-12-25T08:50:52.847Z,56
2022-12-25T08:51:56.653Z,59
2022-12-25T08:53:01.105Z,64
2022-12-25T08:54:04.626Z,67
2022-12-25T08:56:10.684Z,66
2022-12-25T08:58:16.578Z,64
2022-12-25T08:59:20.059Z,70
2022-12-25T09:01:28.269Z,92
2022-12-25T09:03:36.527Z,106
2022-12-25T09:05:43.482Z,106
2022-12-25T09:06:46.887Z,107
2022-12-25T09:07:49.990Z,103
2022-12-25T09:08:53.904Z,103
2022-12-25T09:10:59.781Z,110
2022-12-25T09:13:05.956Z,144
2022-12-25T09:14:08.679Z,153
2022-12-25T09:15:12.037Z,155
2022-12-25T09:16:15.735Z,153
2022-12-25T09:18:22.653Z,142
2022-12-25T09:19:24.812Z,140
2022-12-25T09:20:27.924Z,140
2022-12-25T09:21:31.334Z,143
2022-12-25T09:23:38.068Z,141
2022-12-25T09:24:41.852Z,137
2022-12-25T09:25:45.180Z,133
2022-12-25T09:26:48.714Z,124
2022-12-25T09:28:55.314Z,111
2022-12-25T09:31:01.540Z,106
2022-12-25T09:33:07.371Z,101
2022-12-25T09:34:20.078Z,97
2022-12-25T09:36:26.855Z,88
2022-12-25T09:38:32.999Z,85
2022-12-25T09:39:47.266Z,85
2022-12-25T09:40:51.656Z,83
2022-12-25T09:41:55.112Z,83
2022-12-25T09:42:58.310Z,81
2022-12-25T09:44:01.912Z,75
2022-12-25T09:46:08.808Z,73
2022-12-25T09:47:11.655Z,75
2022-12-25T09:48:15.006Z,75
2022-12-25T09:49:18.088Z,76
2022-12-25T09:50:21.630Z,79
2022-12-25T09:52:26.882Z,84
2022-12-25T09:54:32.540Z,90
2022-12-25T09:55:35.948Z,85
2022-12-25T09:57:42.729Z,89
2022-12-25T09:59:47.695Z,101
2022-12-25T10:00:50.492Z,104
2022-12-25T10:02:59.565Z,128
2022-12-25T10:04:03.447Z,155
2022-12-25T10:05:06.863Z,156
2022-12-25T10:06:09.866Z,156
2022-12-25T10:07:13.706Z,169
2022-12-25T10:09:21.271Z,137
2022-12-25T10:11:27.342Z,131
2022-12-25T10:12:31.513Z,127
2022-12-25T10:14:37.486Z,134
2022-12-25T10:15:47.960Z,134
2022-12-25T10:16:51.415Z,128
2022-12-25T10:17:54.460Z,125
2022-12-25T10:18:57.244Z,118
2022-12-25T10:21:13.695Z,113
2022-12-25T10:23:19.819Z,94
2022-12-25T10:25:25.505Z,79
2022-12-25T10:26:28.992Z,73
2022-12-25T10:28:36.210Z,61
2022-12-25T10:30:41.657Z,56
2022-12-25T10:31:44.829Z,56
2022-12-25T10:32:48.252Z,59
2022-12-25T10:33:52.256Z,59
2022-12-25T10:35:58.920Z,57
2022-12-25T10:37:01.652Z,55
2022-12-25T10:38:04.677Z,55
2022-12-25T10:39:07.983Z,56
2022-12-25T10:41:14.524Z,54
2022-12-25T10:43:20.635Z,49
2022-12-25T10:44:24.417Z,47
2022-12-25T10:46:31.546Z,41
2022-12-25T10:48:38.048Z,43
2022-12-25T10:50:44.380Z,46
2022-12-25T10:51:47.264Z,46
2022-12-25T10:53:53.816Z,43
2022-12-25T10:55:57.933Z,42
2022-12-25T10:57:02.422Z,39
2022-12-25T10:59:09.662Z,39
2022-12-25T11:01:17.471Z,35
2022-12-25T11:02:21.632Z,36
2022-12-25T11:04:28.498Z,34
2022-12-25T11:06:34.805Z,33
2022-12-25T11:08:41.196Z,34
2022-12-25T11:09:44.172Z,35
2022-12-25T11:11:50.254Z,36
2022-12-25T11:13:57.116Z,37
2022-12-25T11:14:59.693Z,37
2022-12-25T11:17:07.411Z,35
2022-12-25T11:18:09.844Z,35
2022-12-25T11:20:16.822Z,34
2022-12-25T11:22:23.233Z,37
2022-12-25T11:24:29.625Z,39
2022-12-25T11:25:32.967Z,40
2022-12-25T11:27:39.036Z,40
2022-12-25T11:29:45.044Z,41
2022-12-25T11:30:48.775Z,41
2022-12-25T11:32:56.588Z,42
2022-12-25T11:35:02.440Z,43
2022-12-25T11:36:05.195Z,45
2022-12-25T11:38:10.105Z,48
2022-12-25T11:39:13.218Z,49
2022-12-25T11:40:16.753Z,48
2022-12-25T11:41:20.223Z,48
2022-12-25T11:43:25.804Z,46
2022-12-25T11:44:29.180Z,46
2022-12-25T11:46:36.366Z,46
2022-12-25T11:48:43.266Z,47
2022-12-25T11:50:02.036Z,47
2022-12-25T11:51:04.792Z,47
2022-12-25T11:52:08.428Z,45
2022-12-25T11:54:13.877Z,41
2022-12-25T11:56:19.729Z,37
2022-12-25T11:57:23.065Z,35
2022-12-25T11:59:28.500Z,32
2022-12-25T12:01:34.987Z,31
2022-12-25T12:02:40.020Z,30
2022-12-25T12:04:47.596Z,29
2022-12-25T12:05:50.373Z,28
2022-12-25T12:07:56.946Z,25
2022-12-25T12:10:03.341Z,24
2022-12-25T12:11:06.708Z,23
2022-12-25T12:12:10.423Z,24
2022-12-25T12:13:13.448Z,23
2022-12-25T12:15:19.303Z,25
2022-12-25T12:17:27.244Z,25
2022-12-25T12:18:30.947Z,24
2022-12-25T12:20:37.547Z,24
2022-12-25T12:22:42.271Z,25
2022-12-25T12:23:45.057Z,26
2022-12-25T12:25:50.941Z,28
2022-12-25T12:28:07.118Z,26
2022-12-25T12:30:13.148Z,26
2022-12-25T12:31:17.655Z,25
2022-12-25T12:33:23.825Z,24
2022-12-25T12:34:27.213Z,23
2022-12-25T12:35:30.964Z,23
2022-12-25T12:36:41.194Z,23
2022-12-25T12:38:47.130Z,24
2022-12-25T12:39:50.781Z,24
2022-12-25T12:40:54.065Z,24
2022-12-25T12:41:57.107Z,24
2022-12-25T12:44:04.365Z,22
2022-12-25T12:45:07.481Z,19
2022-12-25T12:47:14.141Z,18
2022-12-25T12:49:21.565Z,18
2022-12-25T12:50:25.215Z,18
2022-12-25T12:52:31.535Z,20
2022-12-25T12:54:36.581Z,21
2022-12-25T12:55:39.711Z,20
2022-12-25T12:57:45.919Z,19
2022-12-25T12:59:51.972Z,18
2022-12-25T13:00:56.063Z,17
2022-12-25T13:03:03.488Z,17
2022-12-25T13:05:10.087Z,17
2022-12-25T13:06:13.494Z,16
2022-12-25T13:08:19.804Z,16
2022-12-25T13:09:22.910Z,17
2022-12-25T13:11:29.328Z,15
2022-12-25T13:13:34.283Z,15
2022-12-25T13:15:40.862Z,17
2022-12-25T13:16:44.635Z,17
2022-12-25T13:18:51.270Z,19
2022-12-25T13:20:57.592Z,22
2022-12-25T13:22:01.273Z,21
2022-12-25T13:23:05.005Z,20
2022-12-25T13:24:08.343Z,20
2022-12-25T13:26:14.234Z,19
2022-12-25T13:27:17.006Z,18
2022-12-25T13:29:23.196Z,18
2022-12-25T13:31:29.752Z,17
2022-12-25T13:33:36.714Z,16
2022-12-25T13:34:39.890Z,17
2022-12-25T13:36:46.265Z,17
2022-12-25T13:38:53.757Z,15
2022-12-25T13:39:56.575Z,14
2022-12-25T13:41:00.283Z,14
2022-12-25T13:42:03.676Z,13
2022-12-25T13:44:10.403Z,11
2022-12-25T13:45:13.846Z,10
2022-12-25T13:47:21.534Z,9
2022-12-25T13:49:28.470Z,9
2022-12-25T13:51:34.675Z,8
2022-12-25T13:52:38.135Z,8
2022-12-25T13:54:45.028Z,9
2022-12-25T13:56:50.371Z,8
2022-12-25T13:57:54.395Z,8
2022-12-25T13:58:58.083Z,7
2022-12-25T14:00:00.520Z,6
2022-12-25T14:02:09.878Z,5
2022-12-25T14:03:13.043Z,4
2022-12-25T14:05:19.104Z,4
2022-12-25T14:07:25.372Z,4
2022-12-25T14:08:28.527Z,4
2022-12-25T14:10:35.211Z,4
2022-12-25T14:12:41.724Z,3
2022-12-25T14:13:44.534Z,3
2022-12-25T14:14:47.917Z,3
2022-12-25T14:15:50.959Z,3
2022-12-25T14:17:57.702Z,3
2022-12-25T14:19:00.595Z,3
2022-12-25T14:20:11.331Z,3
2022-12-25T14:21:14.476Z,2
2022-12-25T14:23:19.712Z,2
2022-12-25T14:24:22.758Z,2
2022-12-25T14:25:26.533Z,2
2022-12-25T14:26:30.355Z,2
2022-12-25T14:28:36.338Z,2
2022-12-25T14:29:38.997Z,2
2022-12-25T14:31:46.322Z,2
2022-12-25T14:33:51.870Z,2
2022-12-25T14:35:58.045Z,2
2022-12-25T14:37:01.126Z,2
2022-12-25T14:39:07.268Z,1
2022-12-25T14:41:13.602Z,1
2022-12-25T14:42:17.397Z,1
2022-12-25T14:44:24.078Z,1
2022-12-25T14:46:30.056Z,1
2022-12-25T14:48:36.814Z,1
2022-12-25T14:49:40.341Z,1
2022-12-25T14:51:46.633Z,1
2022-12-25T14:53:53.246Z,1
2022-12-25T14:54:56.085Z,1
2022-12-25T14:55:59.573Z,1
2022-12-25T14:57:02.447Z,1
2022-12-25T14:59:09.452Z,1
2022-12-25T15:00:13.088Z,0
2022-12-25T15:02:21.464Z,0
2022-12-25T15:04:27.771Z,0
2022-12-25T15:06:34.622Z,0
2022-12-25T15:07:38.293Z,0
2022-12-25T15:09:44.811Z,0
2022-12-25T15:11:06.802Z,0
2022-12-25T15:12:10.430Z,0
2022-12-25T15:13:14.190Z,0
2022-12-25T15:14:16.707Z,0
2022-12-25T15:15:19.783Z,0
2022-12-25T15:17:28.689Z,0
2022-12-25T15:18:32.142Z,0
2022-12-25T15:19:40.798Z,0
2022-12-25T15:20:43.826Z,0
2022-12-25T15:23:22.942Z,0
2022-12-25T15:25:28.939Z,0
2022-12-25T15:27:35.907Z,0
2022-12-25T15:28:39.460Z,0
2022-12-25T15:30:12.829Z,0
2022-12-25T15:31:16.115Z,0
2022-12-25T15:33:21.342Z,0
2022-12-25T15:35:26.323Z,0
2022-12-25T15:37:31.887Z,0
2022-12-25T15:38:35.012Z,0
2022-12-25T15:40:40.588Z,0
2022-12-25T15:42:47.537Z,0
2022-12-25T15:43:51.243Z,0
2022-12-25T15:44:54.258Z,0
2022-12-25T15:45:58.029Z,0
2022-12-25T15:48:04.109Z,0
2022-12-25T15:49:07.153Z,0
2022-12-25T15:50:09.887Z,0
2022-12-25T15:51:12.424Z,0
2022-12-25T15:53:18.277Z,0
2022-12-25T15:54:21.258Z,0
2022-12-25T15:55:23.960Z,0
2022-12-25T15:56:27.033Z,0
2022-12-25T15:58:32.917Z,0
2022-12-25T15:59:36.672Z,0
2022-12-25T16:01:44.053Z,0
2022-12-25T16:03:52.708Z,0
2022-12-25T16:05:58.340Z,0
2022-12-25T16:07:01.096Z,0
2022-12-25T16:09:07.302Z,0
2022-12-25T16:11:13.250Z,0
2022-12-25T16:12:16.675Z,0
2022-12-25T16:13:20.025Z,0
2022-12-25T16:14:23.118Z,0
2022-12-25T16:16:30.948Z,0
2022-12-25T16:17:34.383Z,0
2022-12-25T16:18:47.950Z,0
2022-12-25T16:19:51.106Z,0
2022-12-25T16:21:57.978Z,0
2022-12-25T16:24:03.869Z,0
2022-12-25T16:25:07.513Z,0
2022-12-25T16:27:13.437Z,0
2022-12-25T16:29:20.160Z,0
2022-12-25T16:31:28.146Z,0
2022-12-25T16:32:31.174Z,0
2022-12-25T16:34:36.551Z,0
2022-12-25T16:36:42.418Z,0
2022-12-25T16:38:48.588Z,0
2022-12-25T16:39:51.329Z,0
2022-12-25T16:41:56.603Z,0
2022-12-25T16:44:01.571Z,0
2022-12-25T16:46:08.090Z,0
2022-12-25T16:47:11.823Z,0
2022-12-25T16:49:18.494Z,0
2022-12-25T16:51:24.917Z,0
2022-12-25T16:53:31.280Z,0
2022-12-25T16:54:33.816Z,0
2022-12-25T16:56:39.974Z,0
2022-12-25T16:58:46.465Z,0
2022-12-25T17:00:52.576Z,0
2022-12-25T17:01:58.148Z,0
2022-12-25T17:03:04.194Z,0
2022-12-25T17:04:08.253Z,0
2022-12-25T17:06:14.513Z,0
2022-12-25T17:08:20.310Z,0
2022-12-25T17:09:23.383Z,0
2022-12-25T17:11:30.347Z,0
2022-12-25T17:13:36.478Z,0
2022-12-25T17:15:52.644Z,0
2022-12-25T17:16:56.762Z,0
2022-12-25T17:18:00.553Z,0
2022-12-25T17:19:04.712Z,0
2022-12-25T17:21:09.706Z,0
2022-12-25T17:22:13.741Z,0
2022-12-25T17:23:17.119Z,0
2022-12-25T17:24:20.478Z,0
2022-12-25T17:26:27.421Z,0
2022-12-25T17:27:30.181Z,0
2022-12-25T17:28:32.619Z,0
2022-12-25T17:29:36.276Z,0
2022-12-25T17:31:44.254Z,0
2022-12-25T17:33:50.623Z,0
2022-12-25T17:34:54.374Z,0
2022-12-25T17:36:05.351Z,0
2022-12-25T17:37:09.013Z,0
2022-12-25T17:39:15.504Z,0
2022-12-25T17:41:22.163Z,0
2022-12-25T17:42:25.447Z,0
2022-12-25T17:44:32.395Z,0
2022-12-25T17:46:39.717Z,0
2022-12-25T17:48:46.237Z,0
2022-12-25T17:49:49.617Z,0
2022-12-25T17:50:53.068Z,0
2022-12-25T17:51:56.373Z,0
2022-12-25T17:54:03.899Z,0
2022-12-25T17:56:10.430Z,0
2022-12-25T17:57:13.213Z,0
2022-12-25T17:59:21.377Z,0
2022-12-25T18:01:29.333Z,0
2022-12-25T18:03:38.359Z,0
2022-12-25T18:04:42.127Z,0
2022-12-25T18:06:49.145Z,0
2022-12-25T18:08:55.389Z,0
2022-12-25T18:11:02.252Z,0
2022-12-25T18:12:05.920Z,0
2022-12-25T18:14:11.580Z,0
2022-12-25T18:16:18.018Z,0
2022-12-25T18:18:24.557Z,0
2022-12-25T18:19:27.693Z,0
2022-12-25T18:20:42.063Z,0
2022-12-25T18:21:45.688Z,0
2022-12-25T18:23:52.019Z,0
2022-12-25T18:25:58.523Z,0
2022-12-25T18:28:05.174Z,0
2022-12-25T18:29:07.950Z,0
2022-12-25T18:31:14.252Z,0
2022-12-25T18:33:20.696Z,0
2022-12-25T18:35:26.932Z,0
2022-12-25T18:36:30.012Z,0
2022-12-25T18:37:41.973Z,0
2022-12-25T18:38:45.833Z,0
2022-12-25T18:40:52.587Z,0
2022-12-25T18:43:05.491Z,0
2022-12-25T18:45:11.592Z,0
2022-12-25T18:46:15.124Z,0
2022-12-25T18:48:20.734Z,0
2022-12-25T18:50:26.660Z,0
2022-12-25T18:51:39.075Z,0
2022-12-25T18:52:53.774Z,0
2022-12-25T18:53:57.856Z,0
2022-12-25T18:55:01.242Z,0
2022-12-25T18:56:04.243Z,0
2022-12-25T18:58:14.657Z,0
2022-12-25T18:59:17.553Z,0
2022-12-25T19:00:20.592Z,0
2022-12-25T19:01:25.560Z,0
2022-12-25T19:03:32.521Z,0
2022-12-25T19:04:35.315Z,0
2022-12-25T19:05:38.280Z,0
2022-12-25T19:06:41.298Z,0
2022-12-25T19:08:47.064Z,0
2022-12-25T19:10:54.335Z,0
2022-12-25T19:11:57.348Z,0
2022-12-25T19:14:03.689Z,0
2022-12-25T19:16:09.633Z,0
2022-12-25T19:17:13.673Z,0
2022-12-25T19:18:16.856Z,0
2022-12-25T19:19:20.351Z,0
2022-12-25T19:21:26.971Z,0
2022-12-25T19:23:33.115Z,0
2022-12-25T19:24:35.677Z,0
2022-12-25T19:26:42.979Z,0
2022-12-25T19:28:49.911Z,0
2022-12-25T19:30:56.111Z,0
2022-12-25T19:31:59.380Z,0
2022-12-25T19:34:05.262Z,0
2022-12-25T19:36:11.145Z,0
2022-12-25T19:38:18.276Z,0
2022-12-25T19:39:21.785Z,0
2022-12-25T19:41:29.325Z,0
2022-12-25T19:43:34.811Z,0
2022-12-25T19:45:41.739Z,0
2022-12-25T19:46:44.600Z,0
2022-12-25T19:48:51.200Z,0
2022-12-25T19:50:04.826Z,0
2022-12-25T19:51:07.353Z,0
2022-12-25T19:53:12.917Z,0
2022-12-25T19:54:15.725Z,0
2022-12-25T19:55:18.869Z,0
2022-12-25T19:56:22.594Z,0
2022-12-25T19:58:28.814Z,0
2022-12-25T20:00:35.914Z,0
2022-12-25T20:02:43.807Z,0
2022-12-25T20:03:48.552Z,0
2022-12-25T20:05:55.421Z,0
2022-12-25T20:08:01.049Z,0
2022-12-25T20:09:04.348Z,0
2022-12-25T20:10:08.094Z,0
2022-12-25T20:11:11.645Z,0
2022-12-25T20:13:18.929Z,0
2022-12-25T20:15:25.701Z,0
2022-12-25T20:16:29.463Z,0
2022-12-25T20:18:36.032Z,0
2022-12-25T20:20:42.358Z,0
2022-12-25T20:22:49.141Z,0
2022-12-25T20:23:52.493Z,0
2022-12-25T20:25:58.280Z,0
2022-12-25T20:28:05.312Z,0
2022-12-25T20:30:12.188Z,0
2022-12-25T20:31:14.962Z,0
2022-12-25T20:33:21.652Z,0
2022-12-25T20:35:27.210Z,0
2022-12-25T20:36:39.959Z,0
2022-12-25T20:37:43.406Z,0
2022-12-25T20:38:46.713Z,0
2022-12-25T20:41:31.767Z,0
2022-12-25T20:42:35.169Z,0
2022-12-25T20:43:47.518Z,0
2022-12-25T20:45:54.910Z,0
2022-12-25T20:48:00.461Z,0
2022-12-25T20:49:03.579Z,0
2022-12-25T20:51:10.202Z,0
2022-12-25T20:53:16.247Z,0
2022-12-25T20:55:21.825Z,0
2022-12-25T20:56:24.867Z,0
2022-12-25T20:58:30.774Z,0
2022-12-25T20:59:39.447Z,0
2022-12-25T21:00:43.263Z,0
2022-12-25T21:02:51.617Z,0
2022-12-25T21:03:55.603Z,0
2022-12-25T21:04:59.013Z,0
2022-12-25T21:06:02.468Z,0
2022-12-25T21:08:07.537Z,0
2022-12-25T21:09:10.827Z,0
2022-12-25T21:10:13.911Z,0
2022-12-25T21:11:17.443Z,0
2022-12-25T21:13:23.727Z,0
2022-12-25T21:15:29.788Z,0
2022-12-25T21:16:33.970Z,0
2022-12-25T21:18:39.551Z,0
2022-12-25T21:20:46.271Z,0
2022-12-25T21:22:51.560Z,0
2022-12-25T21:23:54.662Z,0
2022-12-25T21:26:00.576Z,0
2022-12-25T21:28:07.404Z,0
2022-12-25T21:29:10.388Z,0
2022-12-25T21:30:18.162Z,0
2022-12-25T21:31:22.382Z,0
2022-12-25T21:33:29.370Z,0
2022-12-25T21:35:34.882Z,0
2022-12-25T21:36:38.170Z,0
2022-12-25T21:38:43.795Z,0
2022-12-25T21:40:49.020Z,0
2022-12-25T21:41:52.010Z,0
2022-12-25T21:42:54.456Z,0
2022-12-25T21:43:57.619Z,0
2022-12-25T21:46:03.560Z,0
2022-12-25T21:48:10.763Z,0
2022-12-25T21:49:14.167Z,0
2022-12-25T21:51:19.799Z,0
2022-12-25T21:53:25.905Z,0
2022-12-25T21:55:30.800Z,0
2022-12-25T21:56:43.811Z,0
2022-12-25T21:58:51.871Z,0
2022-12-25T22:00:58.657Z,0
2022-12-25T22:03:06.804Z,0
2022-12-25T22:04:10.794Z,0
2022-12-25T22:05:13.787Z,0
2022-12-25T22:06:23.643Z,0
2022-12-25T22:07:26.087Z,0
2022-12-25T22:08:28.558Z,0
2022-12-25T22:09:32.084Z,0
2022-12-25T22:10:35.469Z,0
2022-12-25T22:11:38.287Z,0
2022-12-25T22:13:44.580Z,0
2022-12-25T22:14:58.260Z,0
2022-12-25T22:16:02.552Z,0
2022-12-25T22:17:04.735Z,0
2022-12-25T22:19:11.847Z,0
2022-12-25T22:21:19.141Z,0
2022-12-25T22:22:21.422Z,0
2022-12-25T22:24:28.220Z,0
2022-12-25T22:26:34.555Z,0
2022-12-25T22:28:41.451Z,0
2022-12-25T22:29:44.804Z,0
2022-12-25T22:31:52.463Z,0
2022-12-25T22:33:59.332Z,0
2022-12-25T22:36:06.347Z,0
2022-12-25T22:37:09.609Z,0
2022-12-25T22:39:16.458Z,0
2022-12-25T22:41:25.026Z,0
2022-12-25T22:42:31.663Z,0
2022-12-25T22:44:20.135Z,0
2022-12-25T22:46:26.472Z,0
2022-12-25T22:48:32.063Z,0
2022-12-25T22:49:35.188Z,0
2022-12-25T22:50:38.937Z,0
2022-12-25T22:51:43.011Z,0
2022-12-25T22:53:49.232Z,0
2022-12-25T22:55:55.717Z,0
2022-12-25T22:56:58.745Z,0
2022-12-25T22:59:04.702Z,0
2022-12-25T23:01:11.006Z,0
2022-12-25T23:03:19.201Z,0
2022-12-25T23:04:21.803Z,0
2022-12-25T23:06:27.557Z,0
2022-12-25T23:08:34.441Z,0
2022-12-25T23:10:40.365Z,0
2022-12-25T23:11:43.665Z,0
2022-12-25T23:13:49.229Z,0
2022-12-25T23:15:56.094Z,0
2022-12-25T23:18:01.309Z,0
2022-12-25T23:19:04.071Z,0
2022-12-25T23:21:11.326Z,0
2022-12-25T23:23:18.807Z,0
2022-12-25T23:25:25.205Z,0
2022-12-25T23:26:28.023Z,0
2022-12-25T23:28:34.212Z,0
2022-12-25T23:30:42.215Z,0
2022-12-25T23:32:48.886Z,0
2022-12-25T23:33:51.455Z,0
2022-12-25T23:35:57.489Z,0
2022-12-25T23:38:03.723Z,0
2022-12-25T23:39:12.211Z,0
2022-12-25T23:40:15.285Z,0
2022-12-25T23:41:18.660Z,0
2022-12-25T23:43:25.159Z,0
2022-12-25T23:45:31.721Z,0
2022-12-25T23:47:38.076Z,0
2022-12-25T23:48:40.550Z,0
2022-12-25T23:50:46.232Z,0